Flight Track Log - Related Links

Times and Time Zones

All times are in EDT time to prevent confusion due to time zone crossing. See the SWA2236 flight status page for this flight to view local times or setup timezone preferences in your user account.

Time Position Orientation Groundspeed Altitude Reporting Facility
EDT Latitude Longitude Course Direction KTS MPH feet Rate Location/Type
Mon 10:57:11 PM 39.1411 -76.7717 284° West 175 201 4,100  Level Washington Center
Mon 10:58:12 PM 39.1167 -76.7019 114° Southeast 94 108 7,800 2,800 Climbing Washington Center
Mon 10:59:11 PM 39.1175 -76.6164 89° East 147 169 9,700 2,410 Climbing Washington Center
Mon 11:00:09 PM 39.1308 -76.5119 81° East 193 222 12,500 3,400 Climbing Washington Center
Mon 11:01:11 PM 39.1403 -76.3569 85° East 302 348 16,500 3,500 Climbing Washington Center
Mon 11:02:00 PM 39.1562 -76.5809 284° West  Level FlightAware Approximate
Mon 11:02:09 PM 39.1492 -76.2286 85° East 346 398 19,500  Level Washington Center
Mon 11:03:10 PM 39.1667 -76.0922 81° East 372 428 21,900 2,300 Climbing Washington Center
Mon 11:04:09 PM 39.1839 -75.9531 81° East 384 442 24,100 1,537 Climbing Washington Center
Mon 11:05:11 PM 39.2383 -75.8194 62° Northeast 395 455 25,000 689 Climbing Washington Center
Mon 11:06:11 PM 39.3175 -75.7150 46° Northeast 395 455 25,500 1,017 Climbing Washington Center
Mon 11:07:09 PM 39.4011 -75.6103 44° Northeast 403 464 27,000 1,714 Climbing Washington Center
Mon 11:08:10 PM 39.4803 -75.5108 44° Northeast 397 457 28,900 635 Climbing Washington Center
Mon 11:10:18 PM 39.6497 -75.2897 45° Northeast 406 467 29,000 32 Climbing New York Center
Mon 11:11:20 PM 39.7244 -75.1839 47° Northeast 406 467 29,000  Level New York Center
Mon 11:12:20 PM 39.7997 -75.0697 49° Northeast 406 467 29,000  Level New York Center
Mon 11:13:18 PM 39.8722 -74.9661 48° Northeast 400 460 29,000  Level New York Center
Mon 11:14:18 PM 39.9489 -74.8569 47° Northeast 395 455 29,000  Level New York Center
Mon 11:15:18 PM 40.0372 -74.7753 35° Northeast 389 448 29,000  Level New York Center
Mon 11:16:19 PM 40.1553 -74.7358 14° North 389 448 29,000  Level New York Center
Mon 11:17:19 PM 40.2672 -74.6961 15° North 396 456 29,000  Level New York Center
Mon 11:18:18 PM 40.3767 -74.6561 16° North 406 467 29,000  Level New York Center
Mon 11:19:18 PM 40.4844 -74.6183 15° North 400 460 29,000  Level New York Center
Mon 11:20:19 PM 40.5917 -74.5808 15° North 400 460 29,000 -500 Level New York Center
Mon 11:21:18 PM 40.7014 -74.5431 15° North 400 460 28,000 -1,008 Descending New York Center
Mon 11:22:18 PM 40.8086 -74.5078 14° North 400 460 27,000 -944 Descending New York Center
Mon 11:24:16 PM 41.0242 -74.4292 15° North 395 455 25,200 -944 Descending Boston Center
Mon 11:25:16 PM 41.1206 -74.3936 16° North 400 460 24,200 -600 Descending Boston Center
Mon 11:26:16 PM 41.2400 -74.3586 12° North 400 460 24,000 -100 Descending Boston Center
Mon 11:27:16 PM 41.3322 -74.3200 17° North 390 449 24,000  Level Boston Center
Mon 11:28:16 PM 41.4350 -74.2814 16° North 385 443 24,000  Level Boston Center
Mon 11:29:16 PM 41.5544 -74.2433 13° North 385 443 24,000 -300 Level Boston Center
Mon 11:30:16 PM 41.6383 -74.2150 14° North 385 443 23,400 -1,650 Descending Boston Center
Mon 11:31:16 PM 41.7619 -74.1683 16° North 379 436 20,700 -2,505 Descending Boston Center
Mon 11:31:59 PM 41.8311 -74.1425 16° North 380 437 19,100 -2,202 Descending Boston Center
Mon 11:33:05 PM 41.9400 -74.1008 16° North 366 421 16,700 -1,748 Descending Boston Center
Mon 11:34:06 PM 42.0325 -74.0611 18° North 345 397 15,400 -1,623 Descending Boston Center
Mon 11:35:07 PM 42.1206 -74.0131 22° Northeast 334 384 13,400 -1,983 Descending Boston Center
Mon 11:36:07 PM 42.2044 -73.9761 18° North 328 377 11,400 -1,686 Descending Boston Center
Mon 11:37:08 PM 42.2864 -73.9331 21° North 313 360 10,000 -1,623 Descending Boston Center
Mon 11:38:09 PM 42.3619 -73.8983 19° North 279 321 8,100 -1,884 Descending Boston Center
Mon 11:39:09 PM 42.4353 -73.8606 21° North 275 316 6,200 -1,636 Descending Boston Center
Mon 11:40:10 PM 42.5067 -73.8200 23° Northeast 269 310 4,800 -1,041 Descending Boston Center
Mon 11:41:10 PM 42.5653 -73.8017 13° North 201 231 4,100 -1,041 Descending Boston Center
Mon 11:42:11 PM 42.6131 -73.8056 357° North 163 188 2,700 -1,180 Descending Boston Center
Mon 11:43:12 PM 42.6589 -73.8036 North 161 185 1,700 -793 Descending Boston Center
Mon 11:44:12 PM 42.6944 -73.8072 356° North 122 140 1,100 -645 Descending Boston Center
Mon 11:45:13 PM 42.7297 -73.8081 359° North 116 133 400 -689 Descending Boston Center
Mon 11:48:00 PM 42.7333 -73.8000 10° North  Level FlightAware Approximate
Mon 11:55:00 PM 42.7491 -73.8020 10° North  Level Estimated

Login

Don't have an account? Register now (free) for customized features, flight alerts, and more!